sensor_id;sensor_type;location;lat;lon;timestamp;temperature;humidity
18717;DHT22;9487;50.892;6.906;2023-01-28T00:00:50;3.50;71.00
18717;DHT22;9487;50.892;6.906;2023-01-28T00:03:17;3.50;95.00
18717;DHT22;9487;50.892;6.906;2023-01-28T00:05:44;3.40;97.70
18717;DHT22;9487;50.892;6.906;2023-01-28T00:08:11;3.30;99.90
18717;DHT22;9487;50.892;6.906;2023-01-28T00:10:39;3.30;99.90
18717;DHT22;9487;50.892;6.906;2023-01-28T00:13:10;3.30;99.90
18717;DHT22;9487;50.892;6.906;2023-01-28T00:15:37;3.30;99.90
18717;DHT22;9487;50.892;6.906;2023-01-28T00:18:04;3.30;99.90
18717;DHT22;9487;50.892;6.906;2023-01-28T00:20:31;3.20;99.90
18717;DHT22;9487;50.892;6.906;2023-01-28T00:22:59;3.20;97.00
18717;DHT22;9487;50.892;6.906;2023-01-28T00:25:26;3.10;99.90
18717;DHT22;9487;50.892;6.906;2023-01-28T00:27:53;3.10;71.50
18717;DHT22;9487;50.892;6.906;2023-01-28T00:30:21;3.00;89.20
18717;DHT22;9487;50.892;6.906;2023-01-28T00:32:48;3.00;86.80
18717;DHT22;9487;50.892;6.906;2023-01-28T00:35:15;3.00;59.30
18717;DHT22;9487;50.892;6.906;2023-01-28T00:37:44;2.90;29.30
18717;DHT22;9487;50.892;6.906;2023-01-28T00:40:12;2.90;35.70
18717;DHT22;9487;50.892;6.906;2023-01-28T00:42:39;2.90;45.30
18717;DHT22;9487;50.892;6.906;2023-01-28T00:45:06;2.80;52.70
18717;DHT22;9487;50.892;6.906;2023-01-28T00:47:34;2.80;38.90
18717;DHT22;9487;50.892;6.906;2023-01-28T00:50:02;2.80;51.30
18717;DHT22;9487;50.892;6.906;2023-01-28T00:52:29;2.70;16.80
18717;DHT22;9487;50.892;6.906;2023-01-28T00:54:55;2.70;1.00
18717;DHT22;9487;50.892;6.906;2023-01-28T00:57:22;2.70;1.00
18717;DHT22;9487;50.892;6.906;2023-01-28T00:59:49;2.70;1.00
18717;DHT22;9487;50.892;6.906;2023-01-28T01:02:16;2.60;10.10
18717;DHT22;9487;50.892;6.906;2023-01-28T01:04:44;2.60;63.70
18717;DHT22;9487;50.892;6.906;2023-01-28T01:07:21;2.70;99.90
18717;DHT22;9487;50.892;6.906;2023-01-28T01:09:57;2.70;99.90
18717;DHT22;9487;50.892;6.906;2023-01-28T01:12:25;2.70;99.90
18717;DHT22;9487;50.892;6.906;2023-01-28T01:14:51;2.70;99.90
18717;DHT22;9487;50.892;6.906;2023-01-28T01:17:18;2.70;99.90
18717;DHT22;9487;50.892;6.906;2023-01-28T01:19:47;2.60;99.90
18717;DHT22;9487;50.892;6.906;2023-01-28T01:22:14;2.70;99.90
18717;DHT22;9487;50.892;6.906;2023-01-28T01:24:41;2.70;99.90
18717;DHT22;9487;50.892;6.906;2023-01-28T01:27:08;2.60;99.90
18717;DHT22;9487;50.892;6.906;2023-01-28T01:29:34;2.60;99.90
18717;DHT22;9487;50.892;6.906;2023-01-28T01:32:01;2.60;99.90
18717;DHT22;9487;50.892;6.906;2023-01-28T01:34:28;2.50;99.90
18717;DHT22;9487;50.892;6.906;2023-01-28T01:36:56;2.50;99.90
18717;DHT22;9487;50.892;6.906;2023-01-28T01:39:23;2.50;99.90
18717;DHT22;9487;50.892;6.906;2023-01-28T01:41:50;2.50;99.90
18717;DHT22;9487;50.892;6.906;2023-01-28T01:44:51;2.50;99.90
18717;DHT22;9487;50.892;6.906;2023-01-28T01:47:20;2.40;99.90
18717;DHT22;9487;50.892;6.906;2023-01-28T01:49:49;2.40;99.90
18717;DHT22;9487;50.892;6.906;2023-01-28T01:52:21;2.40;99.90
18717;DHT22;9487;50.892;6.906;2023-01-28T01:54:51;2.30;99.90
18717;DHT22;9487;50.892;6.906;2023-01-28T01:57:23;2.30;99.90
18717;DHT22;9487;50.892;6.906;2023-01-28T01:59:50;2.30;99.90
18717;DHT22;9487;50.892;6.906;2023-01-28T02:02:17;2.30;99.90
18717;DHT22;9487;50.892;6.906;2023-01-28T02:04:44;2.30;99.90
18717;DHT22;9487;50.892;6.906;2023-01-28T02:07:14;2.30;99.90
18717;DHT22;9487;50.892;6.906;2023-01-28T02:09:42;2.30;99.90
18717;DHT22;9487;50.892;6.906;2023-01-28T02:12:12;2.30;99.90
18717;DHT22;9487;50.892;6.906;2023-01-28T02:14:43;2.20;99.90
18717;DHT22;9487;50.892;6.906;2023-01-28T02:17:11;2.20;99.90
18717;DHT22;9487;50.892;6.906;2023-01-28T02:19:43;2.10;99.90
18717;DHT22;9487;50.892;6.906;2023-01-28T02:28:43;2.10;99.90
18717;DHT22;9487;50.892;6.906;2023-01-28T02:31:15;2.00;99.90
18717;DHT22;9487;50.892;6.906;2023-01-28T02:33:50;2.00;99.90
18717;DHT22;9487;50.892;6.906;2023-01-28T02:36:25;2.00;99.90
18717;DHT22;9487;50.892;6.906;2023-01-28T02:38:55;1.90;99.90
18717;DHT22;9487;50.892;6.906;2023-01-28T02:41:28;2.00;99.90
18717;DHT22;9487;50.892;6.906;2023-01-28T02:44:01;1.90;99.90
18717;DHT22;9487;50.892;6.906;2023-01-28T02:46:35;1.80;99.90
18717;DHT22;9487;50.892;6.906;2023-01-28T02:49:24;1.80;99.90
18717;DHT22;9487;50.892;6.906;2023-01-28T02:54:51;1.70;99.90
18717;DHT22;9487;50.892;6.906;2023-01-28T02:57:28;1.70;99.90
18717;DHT22;9487;50.892;6.906;2023-01-28T03:00:07;1.70;99.90
18717;DHT22;9487;50.892;6.906;2023-01-28T03:02:40;1.70;99.90
18717;DHT22;9487;50.892;6.906;2023-01-28T03:05:13;1.80;99.90
18717;DHT22;9487;50.892;6.906;2023-01-28T03:07:43;1.70;99.90
18717;DHT22;9487;50.892;6.906;2023-01-28T03:10:13;1.70;99.90
18717;DHT22;9487;50.892;6.906;2023-01-28T03:12:42;1.80;99.90
18717;DHT22;9487;50.892;6.906;2023-01-28T03:15:31;1.70;99.90
18717;DHT22;9487;50.892;6.906;2023-01-28T03:18:20;1.70;99.90
18717;DHT22;9487;50.892;6.906;2023-01-28T03:21:09;1.80;99.90
18717;DHT22;9487;50.892;6.906;2023-01-28T03:23:58;1.70;99.90
18717;DHT22;9487;50.892;6.906;2023-01-28T03:26:47;1.80;99.90
18717;DHT22;9487;50.892;6.906;2023-01-28T03:29:38;1.80;99.90
18717;DHT22;9487;50.892;6.906;2023-01-28T03:32:25;1.80;99.90
18717;DHT22;9487;50.892;6.906;2023-01-28T03:35:10;1.80;99.90
18717;DHT22;9487;50.892;6.906;2023-01-28T03:37:56;1.80;99.90
18717;DHT22;9487;50.892;6.906;2023-01-28T03:40:25;1.80;99.90
18717;DHT22;9487;50.892;6.906;2023-01-28T03:42:51;1.80;99.90
18717;DHT22;9487;50.892;6.906;2023-01-28T03:45:21;1.80;99.90
18717;DHT22;9487;50.892;6.906;2023-01-28T03:47:49;1.90;99.90
18717;DHT22;9487;50.892;6.906;2023-01-28T03:50:16;1.90;99.90
18717;DHT22;9487;50.892;6.906;2023-01-28T03:52:43;1.90;99.90
18717;DHT22;9487;50.892;6.906;2023-01-28T03:55:09;2.00;99.90
18717;DHT22;9487;50.892;6.906;2023-01-28T03:57:38;2.00;99.90
18717;DHT22;9487;50.892;6.906;2023-01-28T04:00:06;2.00;99.90
18717;DHT22;9487;50.892;6.906;2023-01-28T04:02:35;2.10;99.90
18717;DHT22;9487;50.892;6.906;2023-01-28T04:05:07;2.10;99.90
18717;DHT22;9487;50.892;6.906;2023-01-28T04:07:37;2.00;99.90
18717;DHT22;9487;50.892;6.906;2023-01-28T04:10:05;2.00;99.90
18717;DHT22;9487;50.892;6.906;2023-01-28T04:12:33;2.00;99.90
18717;DHT22;9487;50.892;6.906;2023-01-28T04:15:03;2.00;99.90
18717;DHT22;9487;50.892;6.906;2023-01-28T04:17:40;2.00;99.90
18717;DHT22;9487;50.892;6.906;2023-01-28T04:20:11;2.00;99.90
18717;DHT22;9487;50.892;6.906;2023-01-28T04:22:38;2.00;99.90
18717;DHT22;9487;50.892;6.906;2023-01-28T04:25:05;2.10;99.90
18717;DHT22;9487;50.892;6.906;2023-01-28T04:27:32;2.10;99.90
18717;DHT22;9487;50.892;6.906;2023-01-28T04:29:59;2.10;99.90
18717;DHT22;9487;50.892;6.906;2023-01-28T04:32:26;2.10;99.90
18717;DHT22;9487;50.892;6.906;2023-01-28T04:34:53;2.10;99.90
18717;DHT22;9487;50.892;6.906;2023-01-28T04:37:21;2.10;99.90
18717;DHT22;9487;50.892;6.906;2023-01-28T04:39:47;2.10;99.90
18717;DHT22;9487;50.892;6.906;2023-01-28T04:42:14;2.10;99.90
18717;DHT22;9487;50.892;6.906;2023-01-28T04:44:44;2.10;99.90
18717;DHT22;9487;50.892;6.906;2023-01-28T04:47:11;2.10;99.90
18717;DHT22;9487;50.892;6.906;2023-01-28T04:49:37;2.20;99.90
18717;DHT22;9487;50.892;6.906;2023-01-28T04:52:04;2.10;99.90
18717;DHT22;9487;50.892;6.906;2023-01-28T04:54:33;2.10;99.90
18717;DHT22;9487;50.892;6.906;2023-01-28T04:56:59;2.10;99.90
18717;DHT22;9487;50.892;6.906;2023-01-28T04:59:26;2.10;99.90
18717;DHT22;9487;50.892;6.906;2023-01-28T05:01:53;2.20;99.90
18717;DHT22;9487;50.892;6.906;2023-01-28T05:04:20;2.20;99.90
18717;DHT22;9487;50.892;6.906;2023-01-28T05:06:46;2.20;99.90
18717;DHT22;9487;50.892;6.906;2023-01-28T05:09:13;2.20;99.90
18717;DHT22;9487;50.892;6.906;2023-01-28T05:11:42;2.20;99.90
18717;DHT22;9487;50.892;6.906;2023-01-28T05:14:08;2.20;99.90
18717;DHT22;9487;50.892;6.906;2023-01-28T05:16:35;2.10;99.90
18717;DHT22;9487;50.892;6.906;2023-01-28T05:19:02;2.20;99.90
18717;DHT22;9487;50.892;6.906;2023-01-28T05:21:29;2.10;99.90
18717;DHT22;9487;50.892;6.906;2023-01-28T05:23:56;2.20;99.90
18717;DHT22;9487;50.892;6.906;2023-01-28T05:26:22;2.20;99.90
18717;DHT22;9487;50.892;6.906;2023-01-28T05:28:51;2.20;99.90
18717;DHT22;9487;50.892;6.906;2023-01-28T05:31:17;2.20;99.90
18717;DHT22;9487;50.892;6.906;2023-01-28T05:33:44;2.20;99.90
18717;DHT22;9487;50.892;6.906;2023-01-28T05:36:11;2.30;99.90
18717;DHT22;9487;50.892;6.906;2023-01-28T05:38:38;2.30;99.90
18717;DHT22;9487;50.892;6.906;2023-01-28T05:41:05;2.30;99.90
18717;DHT22;9487;50.892;6.906;2023-01-28T05:43:31;2.20;99.90
18717;DHT22;9487;50.892;6.906;2023-01-28T05:46:00;2.20;99.90
18717;DHT22;9487;50.892;6.906;2023-01-28T05:48:26;2.20;99.90
18717;DHT22;9487;50.892;6.906;2023-01-28T05:50:53;2.30;99.90
18717;DHT22;9487;50.892;6.906;2023-01-28T05:53:20;2.30;99.90
18717;DHT22;9487;50.892;6.906;2023-01-28T05:55:47;2.20;99.90
18717;DHT22;9487;50.892;6.906;2023-01-28T05:58:15;2.20;99.90
18717;DHT22;9487;50.892;6.906;2023-01-28T06:00:42;2.20;99.90
18717;DHT22;9487;50.892;6.906;2023-01-28T06:03:10;2.20;99.90
18717;DHT22;9487;50.892;6.906;2023-01-28T06:05:37;2.30;99.90
18717;DHT22;9487;50.892;6.906;2023-01-28T06:08:05;2.30;99.90
18717;DHT22;9487;50.892;6.906;2023-01-28T06:10:31;2.20;99.90
18717;DHT22;9487;50.892;6.906;2023-01-28T06:12:58;2.20;99.90
18717;DHT22;9487;50.892;6.906;2023-01-28T06:15:25;2.30;99.90
18717;DHT22;9487;50.892;6.906;2023-01-28T06:17:52;2.20;99.90
18717;DHT22;9487;50.892;6.906;2023-01-28T06:20:20;2.20;99.90
18717;DHT22;9487;50.892;6.906;2023-01-28T06:22:49;2.20;99.90
18717;DHT22;9487;50.892;6.906;2023-01-28T06:25:16;2.30;99.90
18717;DHT22;9487;50.892;6.906;2023-01-28T06:27:43;2.40;99.90
18717;DHT22;9487;50.892;6.906;2023-01-28T06:30:10;2.30;99.90
18717;DHT22;9487;50.892;6.906;2023-01-28T06:32:37;2.20;99.90
18717;DHT22;9487;50.892;6.906;2023-01-28T06:35:04;2.20;99.90
18717;DHT22;9487;50.892;6.906;2023-01-28T06:37:34;2.30;99.90
18717;DHT22;9487;50.892;6.906;2023-01-28T06:40:01;2.20;99.90
18717;DHT22;9487;50.892;6.906;2023-01-28T06:42:27;2.20;99.90
18717;DHT22;9487;50.892;6.906;2023-01-28T06:44:54;2.20;99.90
18717;DHT22;9487;50.892;6.906;2023-01-28T06:47:21;2.20;99.90
18717;DHT22;9487;50.892;6.906;2023-01-28T06:49:48;2.40;99.90
18717;DHT22;9487;50.892;6.906;2023-01-28T06:52:14;2.50;99.90
18717;DHT22;9487;50.892;6.906;2023-01-28T06:54:43;2.50;99.90
18717;DHT22;9487;50.892;6.906;2023-01-28T06:57:09;2.50;99.90
18717;DHT22;9487;50.892;6.906;2023-01-28T06:59:36;2.40;99.90
18717;DHT22;9487;50.892;6.906;2023-01-28T07:02:03;2.40;99.90
18717;DHT22;9487;50.892;6.906;2023-01-28T07:04:30;2.30;99.90
18717;DHT22;9487;50.892;6.906;2023-01-28T07:06:57;2.30;99.90
18717;DHT22;9487;50.892;6.906;2023-01-28T07:09:24;2.20;99.90
18717;DHT22;9487;50.892;6.906;2023-01-28T07:11:52;2.30;99.90
18717;DHT22;9487;50.892;6.906;2023-01-28T07:14:19;2.30;99.90
18717;DHT22;9487;50.892;6.906;2023-01-28T07:16:45;2.20;99.90
18717;DHT22;9487;50.892;6.906;2023-01-28T07:19:12;2.10;99.90
18717;DHT22;9487;50.892;6.906;2023-01-28T07:21:39;2.10;99.90
18717;DHT22;9487;50.892;6.906;2023-01-28T07:24:06;2.10;99.90
18717;DHT22;9487;50.892;6.906;2023-01-28T07:26:33;2.20;99.90
18717;DHT22;9487;50.892;6.906;2023-01-28T07:29:01;2.30;99.90
18717;DHT22;9487;50.892;6.906;2023-01-28T07:31:28;2.30;99.90
18717;DHT22;9487;50.892;6.906;2023-01-28T07:33:55;2.20;99.90
18717;DHT22;9487;50.892;6.906;2023-01-28T07:36:21;2.10;99.90
18717;DHT22;9487;50.892;6.906;2023-01-28T07:38:48;2.00;99.90
18717;DHT22;9487;50.892;6.906;2023-01-28T07:41:15;2.10;99.90
18717;DHT22;9487;50.892;6.906;2023-01-28T07:43:42;2.10;99.90
18717;DHT22;9487;50.892;6.906;2023-01-28T07:46:10;2.00;99.90
18717;DHT22;9487;50.892;6.906;2023-01-28T07:48:37;2.00;99.90
18717;DHT22;9487;50.892;6.906;2023-01-28T07:51:04;2.00;99.90
18717;DHT22;9487;50.892;6.906;2023-01-28T07:53:31;2.10;99.90
18717;DHT22;9487;50.892;6.906;2023-01-28T07:55:58;2.20;99.90
18717;DHT22;9487;50.892;6.906;2023-01-28T07:58:26;2.10;99.90
18717;DHT22;9487;50.892;6.906;2023-01-28T08:00:55;2.10;99.90
18717;DHT22;9487;50.892;6.906;2023-01-28T08:03:24;2.20;99.90
18717;DHT22;9487;50.892;6.906;2023-01-28T08:05:52;2.20;99.90
18717;DHT22;9487;50.892;6.906;2023-01-28T08:08:20;2.40;99.90
18717;DHT22;9487;50.892;6.906;2023-01-28T08:10:47;2.20;99.90
18717;DHT22;9487;50.892;6.906;2023-01-28T08:13:15;2.20;99.90
18717;DHT22;9487;50.892;6.906;2023-01-28T08:15:43;2.20;99.90
18717;DHT22;9487;50.892;6.906;2023-01-28T08:18:11;2.20;99.90
18717;DHT22;9487;50.892;6.906;2023-01-28T08:20:40;2.20;99.90
18717;DHT22;9487;50.892;6.906;2023-01-28T08:23:10;2.10;99.90
18717;DHT22;9487;50.892;6.906;2023-01-28T08:25:37;2.20;99.90
18717;DHT22;9487;50.892;6.906;2023-01-28T08:28:05;2.10;99.90
18717;DHT22;9487;50.892;6.906;2023-01-28T08:30:33;2.10;99.90
18717;DHT22;9487;50.892;6.906;2023-01-28T08:33:02;2.10;99.90
18717;DHT22;9487;50.892;6.906;2023-01-28T08:35:29;2.10;99.90
18717;DHT22;9487;50.892;6.906;2023-01-28T08:37:58;2.20;99.90
18717;DHT22;9487;50.892;6.906;2023-01-28T08:40:26;2.30;99.90
18717;DHT22;9487;50.892;6.906;2023-01-28T08:42:53;2.40;99.90
18717;DHT22;9487;50.892;6.906;2023-01-28T08:45:21;2.50;99.90
18717;DHT22;9487;50.892;6.906;2023-01-28T08:47:51;2.30;99.90
18717;DHT22;9487;50.892;6.906;2023-01-28T08:50:19;2.20;99.90
18717;DHT22;9487;50.892;6.906;2023-01-28T08:52:47;2.20;99.90
18717;DHT22;9487;50.892;6.906;2023-01-28T08:55:15;2.10;99.90
18717;DHT22;9487;50.892;6.906;2023-01-28T08:57:43;2.10;99.90
18717;DHT22;9487;50.892;6.906;2023-01-28T09:00:11;2.10;99.90
18717;DHT22;9487;50.892;6.906;2023-01-28T09:02:38;2.10;99.90
18717;DHT22;9487;50.892;6.906;2023-01-28T09:05:05;2.20;99.90
18717;DHT22;9487;50.892;6.906;2023-01-28T09:07:33;2.10;99.90
18717;DHT22;9487;50.892;6.906;2023-01-28T09:10:00;2.20;99.90
18717;DHT22;9487;50.892;6.906;2023-01-28T09:12:28;2.10;99.90
18717;DHT22;9487;50.892;6.906;2023-01-28T09:14:55;2.10;99.90
18717;DHT22;9487;50.892;6.906;2023-01-28T09:17:22;2.00;99.90
18717;DHT22;9487;50.892;6.906;2023-01-28T09:19:49;2.00;99.90
18717;DHT22;9487;50.892;6.906;2023-01-28T09:22:17;2.00;99.90
18717;DHT22;9487;50.892;6.906;2023-01-28T09:24:43;2.00;99.90
18717;DHT22;9487;50.892;6.906;2023-01-28T09:27:10;2.00;99.90
18717;DHT22;9487;50.892;6.906;2023-01-28T09:29:39;2.00;99.90
18717;DHT22;9487;50.892;6.906;2023-01-28T09:32:06;1.90;99.90
18717;DHT22;9487;50.892;6.906;2023-01-28T09:34:32;2.00;99.90
18717;DHT22;9487;50.892;6.906;2023-01-28T09:36:59;4.70;99.90
18717;DHT22;9487;50.892;6.906;2023-01-28T09:39:26;3.10;1.00
18717;DHT22;9487;50.892;6.906;2023-01-28T09:42:08;2.30;99.90
18717;DHT22;9487;50.892;6.906;2023-01-28T09:44:51;2.10;1.00
18717;DHT22;9487;50.892;6.906;2023-01-28T09:47:24;2.00;1.00
18717;DHT22;9487;50.892;6.906;2023-01-28T09:49:53;2.00;1.00
18717;DHT22;9487;50.892;6.906;2023-01-28T09:52:24;1.90;1.00
18717;DHT22;9487;50.892;6.906;2023-01-28T09:54:54;1.90;1.00
18717;DHT22;9487;50.892;6.906;2023-01-28T09:57:23;1.90;1.00
18717;DHT22;9487;50.892;6.906;2023-01-28T09:59:52;1.90;99.90
18717;DHT22;9487;50.892;6.906;2023-01-28T10:02:33;1.90;99.90
18717;DHT22;9487;50.892;6.906;2023-01-28T10:05:15;1.90;99.90
18717;DHT22;9487;50.892;6.906;2023-01-28T10:07:46;1.90;99.90
18717;DHT22;9487;50.892;6.906;2023-01-28T10:10:18;1.90;99.90
18717;DHT22;9487;50.892;6.906;2023-01-28T10:13:14;1.80;99.90
18717;DHT22;9487;50.892;6.906;2023-01-28T10:15:53;1.80;99.90
18717;DHT22;9487;50.892;6.906;2023-01-28T10:18:30;1.70;99.90
18717;DHT22;9487;50.892;6.906;2023-01-28T10:21:04;1.70;99.90
18717;DHT22;9487;50.892;6.906;2023-01-28T10:23:40;1.80;99.90
18717;DHT22;9487;50.892;6.906;2023-01-28T10:26:16;1.80;99.90
18717;DHT22;9487;50.892;6.906;2023-01-28T10:28:47;1.70;99.90
18717;DHT22;9487;50.892;6.906;2023-01-28T10:31:16;1.70;99.90
18717;DHT22;9487;50.892;6.906;2023-01-28T10:33:43;1.80;99.90
18717;DHT22;9487;50.892;6.906;2023-01-28T10:36:10;1.70;99.90
18717;DHT22;9487;50.892;6.906;2023-01-28T10:38:37;1.60;99.90
18717;DHT22;9487;50.892;6.906;2023-01-28T10:41:04;1.60;1.00
18717;DHT22;9487;50.892;6.906;2023-01-28T10:43:33;1.70;1.00
18717;DHT22;9487;50.892;6.906;2023-01-28T10:46:05;1.60;1.00
18717;DHT22;9487;50.892;6.906;2023-01-28T10:48:37;1.60;1.00
18717;DHT22;9487;50.892;6.906;2023-01-28T10:51:07;1.60;99.90
18717;DHT22;9487;50.892;6.906;2023-01-28T10:53:35;1.60;99.90
18717;DHT22;9487;50.892;6.906;2023-01-28T10:56:04;1.60;99.90
18717;DHT22;9487;50.892;6.906;2023-01-28T10:58:35;1.50;99.90
18717;DHT22;9487;50.892;6.906;2023-01-28T11:01:05;1.60;99.90
18717;DHT22;9487;50.892;6.906;2023-01-28T11:03:34;1.60;99.90
18717;DHT22;9487;50.892;6.906;2023-01-28T11:06:01;1.60;99.90
18717;DHT22;9487;50.892;6.906;2023-01-28T11:08:30;1.60;99.90
18717;DHT22;9487;50.892;6.906;2023-01-28T11:10:57;1.60;99.90
18717;DHT22;9487;50.892;6.906;2023-01-28T11:13:26;1.60;1.00
18717;DHT22;9487;50.892;6.906;2023-01-28T11:15:57;1.60;1.00
18717;DHT22;9487;50.892;6.906;2023-01-28T11:18:28;1.60;1.00
18717;DHT22;9487;50.892;6.906;2023-01-28T11:20:59;1.70;1.00
18717;DHT22;9487;50.892;6.906;2023-01-28T11:23:28;1.60;1.00
18717;DHT22;9487;50.892;6.906;2023-01-28T11:26:01;1.70;1.00
18717;DHT22;9487;50.892;6.906;2023-01-28T11:28:29;1.70;99.90
18717;DHT22;9487;50.892;6.906;2023-01-28T11:31:00;1.70;1.00
18717;DHT22;9487;50.892;6.906;2023-01-28T11:33:31;1.70;1.00
18717;DHT22;9487;50.892;6.906;2023-01-28T11:36:06;1.70;1.00
18717;DHT22;9487;50.892;6.906;2023-01-28T11:38:33;1.70;99.90
18717;DHT22;9487;50.892;6.906;2023-01-28T11:41:00;1.70;99.90
18717;DHT22;9487;50.892;6.906;2023-01-28T11:43:29;1.80;99.90
18717;DHT22;9487;50.892;6.906;2023-01-28T11:46:03;1.80;99.90
18717;DHT22;9487;50.892;6.906;2023-01-28T11:48:40;1.80;1.00
18717;DHT22;9487;50.892;6.906;2023-01-28T11:51:26;1.70;1.00
18717;DHT22;9487;50.892;6.906;2023-01-28T11:54:02;1.80;1.00
18717;DHT22;9487;50.892;6.906;2023-01-28T11:56:48;1.80;1.00
18717;DHT22;9487;50.892;6.906;2023-01-28T11:59:32;1.70;1.00
18717;DHT22;9487;50.892;6.906;2023-01-28T12:02:07;1.80;1.00
18717;DHT22;9487;50.892;6.906;2023-01-28T12:04:50;1.80;1.00
18717;DHT22;9487;50.892;6.906;2023-01-28T12:07:34;1.80;99.90
18717;DHT22;9487;50.892;6.906;2023-01-28T12:10:18;1.80;1.00
18717;DHT22;9487;50.892;6.906;2023-01-28T12:13:07;1.80;1.00
18717;DHT22;9487;50.892;6.906;2023-01-28T12:16:01;1.80;1.00
18717;DHT22;9487;50.892;6.906;2023-01-28T12:18:48;1.80;94.90
18717;DHT22;9487;50.892;6.906;2023-01-28T12:21:25;1.80;4.50
18717;DHT22;9487;50.892;6.906;2023-01-28T12:24:07;1.80;3.90
18717;DHT22;9487;50.892;6.906;2023-01-28T12:26:41;1.80;99.90
18717;DHT22;9487;50.892;6.906;2023-01-28T12:29:20;1.70;1.00
18717;DHT22;9487;50.892;6.906;2023-01-28T12:31:58;1.70;78.00
18717;DHT22;9487;50.892;6.906;2023-01-28T12:34:52;1.80;1.00
18717;DHT22;9487;50.892;6.906;2023-01-28T12:37:26;1.80;99.90
18717;DHT22;9487;50.892;6.906;2023-01-28T12:40:05;1.90;92.40
18717;DHT22;9487;50.892;6.906;2023-01-28T12:42:41;1.80;1.00
18717;DHT22;9487;50.892;6.906;2023-01-28T12:45:14;1.80;99.90
18717;DHT22;9487;50.892;6.906;2023-01-28T12:47:47;1.70;1.00
18717;DHT22;9487;50.892;6.906;2023-01-28T12:50:19;1.70;1.00
18717;DHT22;9487;50.892;6.906;2023-01-28T12:52:49;1.70;1.00
18717;DHT22;9487;50.892;6.906;2023-01-28T12:55:21;1.70;99.90
18717;DHT22;9487;50.892;6.906;2023-01-28T12:57:56;1.70;99.90
18717;DHT22;9487;50.892;6.906;2023-01-28T13:00:27;1.70;1.00
18717;DHT22;9487;50.892;6.906;2023-01-28T13:03:01;1.70;99.90
18717;DHT22;9487;50.892;6.906;2023-01-28T13:05:33;1.80;99.90
18717;DHT22;9487;50.892;6.906;2023-01-28T13:08:08;1.80;3.90
18717;DHT22;9487;50.892;6.906;2023-01-28T13:10:40;1.80;99.90
18717;DHT22;9487;50.892;6.906;2023-01-28T13:13:14;1.90;1.00
18717;DHT22;9487;50.892;6.906;2023-01-28T13:15:43;2.00;1.00
18717;DHT22;9487;50.892;6.906;2023-01-28T13:18:32;2.00;99.90
18717;DHT22;9487;50.892;6.906;2023-01-28T13:21:00;2.00;99.90
18717;DHT22;9487;50.892;6.906;2023-01-28T13:23:36;1.90;99.90
18717;DHT22;9487;50.892;6.906;2023-01-28T13:26:24;1.90;1.00
18717;DHT22;9487;50.892;6.906;2023-01-28T13:28:53;1.80;1.00
18717;DHT22;9487;50.892;6.906;2023-01-28T13:31:36;2.00;1.00
18717;DHT22;9487;50.892;6.906;2023-01-28T13:34:06;2.10;1.00
18717;DHT22;9487;50.892;6.906;2023-01-28T13:36:36;2.10;1.00
18717;DHT22;9487;50.892;6.906;2023-01-28T13:39:07;2.30;1.00
18717;DHT22;9487;50.892;6.906;2023-01-28T13:41:43;2.60;1.00
18717;DHT22;9487;50.892;6.906;2023-01-28T13:44:25;2.60;34.90
18717;DHT22;9487;50.892;6.906;2023-01-28T13:46:54;2.70;99.90
18717;DHT22;9487;50.892;6.906;2023-01-28T13:49:25;2.90;9.90
18717;DHT22;9487;50.892;6.906;2023-01-28T13:52:00;3.00;99.90
18717;DHT22;9487;50.892;6.906;2023-01-28T13:54:31;3.10;1.00
18717;DHT22;9487;50.892;6.906;2023-01-28T13:57:27;3.20;1.00
18717;DHT22;9487;50.892;6.906;2023-01-28T14:00:06;3.10;97.20
18717;DHT22;9487;50.892;6.906;2023-01-28T14:02:57;2.80;1.00
18717;DHT22;9487;50.892;6.906;2023-01-28T14:05:59;2.80;1.00
18717;DHT22;9487;50.892;6.906;2023-01-28T14:08:59;3.10;1.00
18717;DHT22;9487;50.892;6.906;2023-01-28T14:11:57;3.30;1.00
18717;DHT22;9487;50.892;6.906;2023-01-28T14:14:56;3.20;1.00
18717;DHT22;9487;50.892;6.906;2023-01-28T14:17:33;3.20;1.00
18717;DHT22;9487;50.892;6.906;2023-01-28T14:20:06;2.70;1.00
18717;DHT22;9487;50.892;6.906;2023-01-28T14:22:40;2.50;1.00
18717;DHT22;9487;50.892;6.906;2023-01-28T14:25:11;2.30;1.00
18717;DHT22;9487;50.892;6.906;2023-01-28T14:27:42;2.10;1.00
18717;DHT22;9487;50.892;6.906;2023-01-28T14:30:18;2.00;99.90
18717;DHT22;9487;50.892;6.906;2023-01-28T14:32:50;2.00;1.00
18717;DHT22;9487;50.892;6.906;2023-01-28T14:35:19;1.90;1.00
18717;DHT22;9487;50.892;6.906;2023-01-28T14:37:48;1.90;1.00
18717;DHT22;9487;50.892;6.906;2023-01-28T14:40:17;1.90;1.00
18717;DHT22;9487;50.892;6.906;2023-01-28T14:42:46;1.90;1.00
18717;DHT22;9487;50.892;6.906;2023-01-28T14:48:23;1.90;1.00
18717;DHT22;9487;50.892;6.906;2023-01-28T14:51:05;1.90;1.00
18717;DHT22;9487;50.892;6.906;2023-01-28T14:53:54;2.00;1.00
18717;DHT22;9487;50.892;6.906;2023-01-28T14:56:32;2.10;58.10
18717;DHT22;9487;50.892;6.906;2023-01-28T14:59:04;2.20;1.00
18717;DHT22;9487;50.892;6.906;2023-01-28T15:01:34;2.20;1.00
18717;DHT22;9487;50.892;6.906;2023-01-28T15:04:01;2.50;1.00
18717;DHT22;9487;50.892;6.906;2023-01-28T15:06:33;2.60;1.00
18717;DHT22;9487;50.892;6.906;2023-01-28T15:09:06;2.60;99.90
18717;DHT22;9487;50.892;6.906;2023-01-28T15:11:36;2.90;43.00
18717;DHT22;9487;50.892;6.906;2023-01-28T15:14:07;3.10;1.00
18717;DHT22;9487;50.892;6.906;2023-01-28T15:16:38;2.70;99.90
18717;DHT22;9487;50.892;6.906;2023-01-28T15:19:06;2.70;1.00
18717;DHT22;9487;50.892;6.906;2023-01-28T15:21:34;2.90;99.90
18717;DHT22;9487;50.892;6.906;2023-01-28T15:24:01;2.90;1.00
18717;DHT22;9487;50.892;6.906;2023-01-28T15:26:31;3.00;99.90
18717;DHT22;9487;50.892;6.906;2023-01-28T15:28:59;3.10;99.90
18717;DHT22;9487;50.892;6.906;2023-01-28T15:31:28;3.20;5.80
18717;DHT22;9487;50.892;6.906;2023-01-28T15:34:00;3.30;1.00
18717;DHT22;9487;50.892;6.906;2023-01-28T15:36:28;3.00;1.00
18717;DHT22;9487;50.892;6.906;2023-01-28T15:38:56;3.10;1.00
18717;DHT22;9487;50.892;6.906;2023-01-28T15:41:27;3.10;1.00
18717;DHT22;9487;50.892;6.906;2023-01-28T15:43:55;3.00;1.00
18717;DHT22;9487;50.892;6.906;2023-01-28T15:46:22;3.00;1.00
18717;DHT22;9487;50.892;6.906;2023-01-28T15:48:54;3.00;58.50
18717;DHT22;9487;50.892;6.906;2023-01-28T15:51:26;2.90;1.00
18717;DHT22;9487;50.892;6.906;2023-01-28T15:53:56;2.60;99.90
18717;DHT22;9487;50.892;6.906;2023-01-28T15:56:25;2.60;1.00
18717;DHT22;9487;50.892;6.906;2023-01-28T15:58:53;2.40;1.00
18717;DHT22;9487;50.892;6.906;2023-01-28T16:01:21;2.00;1.00
18717;DHT22;9487;50.892;6.906;2023-01-28T16:03:59;1.90;99.90
18717;DHT22;9487;50.892;6.906;2023-01-28T16:06:33;1.80;1.00
18717;DHT22;9487;50.892;6.906;2023-01-28T16:09:03;1.80;92.90
18717;DHT22;9487;50.892;6.906;2023-01-28T16:11:33;2.10;99.90
18717;DHT22;9487;50.892;6.906;2023-01-28T16:14:01;2.30;1.00
18717;DHT22;9487;50.892;6.906;2023-01-28T16:16:31;2.30;1.00
18717;DHT22;9487;50.892;6.906;2023-01-28T16:18:59;2.40;99.90
18717;DHT22;9487;50.892;6.906;2023-01-28T16:21:27;2.10;1.00
18717;DHT22;9487;50.892;6.906;2023-01-28T16:24:02;1.80;99.90
18717;DHT22;9487;50.892;6.906;2023-01-28T16:26:30;1.60;99.90
18717;DHT22;9487;50.892;6.906;2023-01-28T16:29:00;1.50;1.00
18717;DHT22;9487;50.892;6.906;2023-01-28T16:31:27;1.50;28.20
18717;DHT22;9487;50.892;6.906;2023-01-28T16:33:53;1.40;99.90
18717;DHT22;9487;50.892;6.906;2023-01-28T16:36:20;1.40;1.00
18717;DHT22;9487;50.892;6.906;2023-01-28T16:38:47;1.30;1.00
18717;DHT22;9487;50.892;6.906;2023-01-28T16:41:25;1.30;1.00